sensor_id;sensor_type;location;lat;lon;timestamp;pressure;altitude;pressure_sealevel;temperature;humidity
36932;BME280;22847;42.654;23.370;2023-05-22T00:01:14;94446.28;;;16.60;67.45
36932;BME280;22847;42.654;23.370;2023-05-22T00:03:43;94444.66;;;16.59;67.36
36932;BME280;22847;42.654;23.370;2023-05-22T00:06:09;94429.69;;;16.59;67.20
36932;BME280;22847;42.654;23.370;2023-05-22T00:08:36;94428.13;;;16.65;67.50
36932;BME280;22847;42.654;23.370;2023-05-22T00:11:02;94448.41;;;16.71;67.75
36932;BME280;22847;42.654;23.370;2023-05-22T00:13:28;94418.34;;;16.59;67.19
36932;BME280;22847;42.654;23.370;2023-05-22T00:15:53;94439.28;;;16.67;66.77
36932;BME280;22847;42.654;23.370;2023-05-22T00:18:18;94408.56;;;16.74;66.48
36932;BME280;22847;42.654;23.370;2023-05-22T00:20:44;94439.47;;;16.86;66.83
36932;BME280;22847;42.654;23.370;2023-05-22T00:23:11;94398.38;;;16.49;66.93
36932;BME280;22847;42.654;23.370;2023-05-22T00:25:36;94415.31;;;16.62;67.05
36932;BME280;22847;42.654;23.370;2023-05-22T00:28:03;94456.53;;;16.69;68.60
36932;BME280;22847;42.654;23.370;2023-05-22T00:30:29;94435.66;;;16.53;68.97
36932;BME280;22847;42.654;23.370;2023-05-22T00:32:54;94414.91;;;16.43;69.01
36932;BME280;22847;42.654;23.370;2023-05-22T00:35:20;94269.00;;;15.68;69.10
36932;BME280;22847;42.654;23.370;2023-05-22T00:37:46;94448.81;;;16.68;69.30
36932;BME280;22847;42.654;23.370;2023-05-22T00:40:12;94444.78;;;16.72;69.53
36932;BME280;22847;42.654;23.370;2023-05-22T00:42:41;94435.22;;;16.49;68.85
36932;BME280;22847;42.654;23.370;2023-05-22T00:45:09;94436.19;;;16.63;68.31
36932;BME280;22847;42.654;23.370;2023-05-22T00:47:35;94393.91;;;16.29;69.23
36932;BME280;22847;42.654;23.370;2023-05-22T00:50:01;94391.16;;;16.37;69.21
36932;BME280;22847;42.654;23.370;2023-05-22T00:52:27;94447.13;;;16.60;69.27
36932;BME280;22847;42.654;23.370;2023-05-22T00:54:53;94442.66;;;16.46;69.18
36932;BME280;22847;42.654;23.370;2023-05-22T00:57:19;94410.53;;;16.50;68.72
36932;BME280;22847;42.654;23.370;2023-05-22T00:59:46;94440.22;;;16.59;69.08
36932;BME280;22847;42.654;23.370;2023-05-22T01:02:13;94439.00;;;16.62;69.41
36932;BME280;22847;42.654;23.370;2023-05-22T01:04:44;94419.59;;;16.48;68.94
36932;BME280;22847;42.654;23.370;2023-05-22T01:07:12;94445.81;;;16.56;69.10
36932;BME280;22847;42.654;23.370;2023-05-22T01:09:37;94361.38;;;16.15;68.74
36932;BME280;22847;42.654;23.370;2023-05-22T01:21:15;94441.09;;;16.66;68.81
36932;BME280;22847;42.654;23.370;2023-05-22T01:32:29;94426.25;;;16.44;70.23
36932;BME280;22847;42.654;23.370;2023-05-22T01:34:58;94260.72;;;15.35;69.09
36932;BME280;22847;42.654;23.370;2023-05-22T01:37:26;94448.78;;;16.32;69.86
36932;BME280;22847;42.654;23.370;2023-05-22T01:39:52;94340.19;;;15.51;71.05
36932;BME280;22847;42.654;23.370;2023-05-22T01:42:19;94420.09;;;16.01;70.48
36932;BME280;22847;42.654;23.370;2023-05-22T01:44:44;94392.78;;;16.02;70.46
36932;BME280;22847;42.654;23.370;2023-05-22T01:47:10;94406.56;;;16.04;71.04
36932;BME280;22847;42.654;23.370;2023-05-22T01:49:35;94278.19;;;15.13;71.22
36932;BME280;22847;42.654;23.370;2023-05-22T01:52:09;94418.06;;;16.03;71.63
36932;BME280;22847;42.654;23.370;2023-05-22T01:54:48;94266.34;;;15.17;71.07
36932;BME280;22847;42.654;23.370;2023-05-22T01:57:27;94424.09;;;15.97;71.39
36932;BME280;22847;42.654;23.370;2023-05-22T02:00:00;94417.22;;;16.17;71.03
36932;BME280;22847;42.654;23.370;2023-05-22T02:02:37;94431.50;;;16.08;71.17
36932;BME280;22847;42.654;23.370;2023-05-22T02:05:04;94418.00;;;16.11;71.17
36932;BME280;22847;42.654;23.370;2023-05-22T02:07:31;94410.81;;;16.05;70.91
36932;BME280;22847;42.654;23.370;2023-05-22T02:09:58;94414.53;;;16.11;71.03
36932;BME280;22847;42.654;23.370;2023-05-22T02:12:25;94367.88;;;15.83;71.40
36932;BME280;22847;42.654;23.370;2023-05-22T02:14:51;94429.94;;;16.14;71.04
36932;BME280;22847;42.654;23.370;2023-05-22T02:17:17;94409.75;;;15.99;71.30
36932;BME280;22847;42.654;23.370;2023-05-22T02:19:43;94249.69;;;14.95;71.61
36932;BME280;22847;42.654;23.370;2023-05-22T02:22:09;94418.53;;;16.06;71.42
36932;BME280;22847;42.654;23.370;2023-05-22T02:24:39;94395.09;;;15.76;71.34
36932;BME280;22847;42.654;23.370;2023-05-22T02:27:06;94271.06;;;15.07;71.72
36932;BME280;22847;42.654;23.370;2023-05-22T02:29:31;94399.16;;;15.78;71.94
36932;BME280;22847;42.654;23.370;2023-05-22T02:31:57;94426.09;;;15.80;72.46
36932;BME280;22847;42.654;23.370;2023-05-22T02:34:22;94394.38;;;15.52;72.87
36932;BME280;22847;42.654;23.370;2023-05-22T02:36:48;94406.59;;;15.60;72.96
36932;BME280;22847;42.654;23.370;2023-05-22T02:39:18;94420.56;;;15.75;72.76
36932;BME280;22847;42.654;23.370;2023-05-22T02:41:44;94398.06;;;15.43;73.29
36932;BME280;22847;42.654;23.370;2023-05-22T02:44:09;94429.25;;;15.61;73.01
36932;BME280;22847;42.654;23.370;2023-05-22T02:46:34;94237.72;;;14.26;73.50
36932;BME280;22847;42.654;23.370;2023-05-22T02:49:00;94417.28;;;15.44;73.55
36932;BME280;22847;42.654;23.370;2023-05-22T02:51:25;94418.78;;;15.24;73.58
36932;BME280;22847;42.654;23.370;2023-05-22T02:53:52;94306.50;;;14.59;73.77
36932;BME280;22847;42.654;23.370;2023-05-22T02:56:17;94285.03;;;14.55;73.41
36932;BME280;22847;42.654;23.370;2023-05-22T02:58:43;94414.69;;;15.36;73.64
36932;BME280;22847;42.654;23.370;2023-05-22T03:01:08;94251.09;;;14.39;73.18
36932;BME280;22847;42.654;23.370;2023-05-22T03:03:34;94357.31;;;14.95;73.73
36932;BME280;22847;42.654;23.370;2023-05-22T03:06:00;94388.88;;;15.25;73.22
36932;BME280;22847;42.654;23.370;2023-05-22T03:08:28;94347.50;;;15.12;72.94
36932;BME280;22847;42.654;23.370;2023-05-22T03:10:56;94389.06;;;15.23;72.97
36932;BME280;22847;42.654;23.370;2023-05-22T03:13:22;94416.69;;;15.34;72.89
36932;BME280;22847;42.654;23.370;2023-05-22T03:15:49;94259.69;;;14.48;72.38
36932;BME280;22847;42.654;23.370;2023-05-22T03:18:14;94412.34;;;15.26;72.62
36932;BME280;22847;42.654;23.370;2023-05-22T03:20:40;94246.19;;;14.36;72.62
36932;BME280;22847;42.654;23.370;2023-05-22T03:23:06;94424.41;;;15.50;72.35
36932;BME280;22847;42.654;23.370;2023-05-22T03:25:31;94429.34;;;15.53;72.08
36932;BME280;22847;42.654;23.370;2023-05-22T03:27:56;94427.66;;;15.37;72.23
36932;BME280;22847;42.654;23.370;2023-05-22T03:30:22;94383.66;;;15.39;71.59
36932;BME280;22847;42.654;23.370;2023-05-22T03:32:47;94418.00;;;15.67;71.67
36932;BME280;22847;42.654;23.370;2023-05-22T03:35:13;94421.19;;;15.62;71.49
36932;BME280;22847;42.654;23.370;2023-05-22T03:37:43;94386.41;;;15.60;71.27
36932;BME280;22847;42.654;23.370;2023-05-22T03:40:09;94291.34;;;14.98;71.15
36932;BME280;22847;42.654;23.370;2023-05-22T03:42:34;94234.91;;;14.27;72.96
36932;BME280;22847;42.654;23.370;2023-05-22T03:45:00;94265.16;;;14.76;72.16
36932;BME280;22847;42.654;23.370;2023-05-22T03:47:25;94419.38;;;15.78;71.94
36932;BME280;22847;42.654;23.370;2023-05-22T03:49:51;94421.66;;;15.66;71.29
36932;BME280;22847;42.654;23.370;2023-05-22T03:52:16;94413.94;;;15.65;71.01
36932;BME280;22847;42.654;23.370;2023-05-22T03:54:42;94329.19;;;15.18;71.20
36932;BME280;22847;42.654;23.370;2023-05-22T03:57:07;94348.66;;;15.24;71.73
36932;BME280;22847;42.654;23.370;2023-05-22T03:59:32;94457.88;;;15.85;71.98
36932;BME280;22847;42.654;23.370;2023-05-22T04:01:58;94411.03;;;15.89;70.92
36932;BME280;22847;42.654;23.370;2023-05-22T04:04:26;94305.28;;;15.43;70.01
36932;BME280;22847;42.654;23.370;2023-05-22T04:06:52;94428.25;;;16.78;67.55
36932;BME280;22847;42.654;23.370;2023-05-22T04:09:17;94429.63;;;16.74;67.31
36932;BME280;22847;42.654;23.370;2023-05-22T04:11:43;94417.81;;;15.98;71.22
36932;BME280;22847;42.654;23.370;2023-05-22T04:14:11;94427.00;;;16.95;68.22
36932;BME280;22847;42.654;23.370;2023-05-22T04:16:36;94394.00;;;17.55;65.28
36932;BME280;22847;42.654;23.370;2023-05-22T04:19:02;94396.56;;;18.17;63.04
36932;BME280;22847;42.654;23.370;2023-05-22T04:21:30;94430.25;;;18.69;61.16
36932;BME280;22847;42.654;23.370;2023-05-22T04:24:02;94412.06;;;19.13;59.74
36932;BME280;22847;42.654;23.370;2023-05-22T04:26:34;94459.66;;;19.59;58.46
36932;BME280;22847;42.654;23.370;2023-05-22T04:29:00;94435.19;;;19.84;57.78
36932;BME280;22847;42.654;23.370;2023-05-22T04:31:26;94271.94;;;18.21;59.31
36932;BME280;22847;42.654;23.370;2023-05-22T04:33:52;94398.63;;;19.48;58.17
36932;BME280;22847;42.654;23.370;2023-05-22T04:36:18;94458.78;;;19.98;57.44
36932;BME280;22847;42.654;23.370;2023-05-22T04:38:47;94291.84;;;19.49;56.16
36932;BME280;22847;42.654;23.370;2023-05-22T04:41:12;94430.97;;;20.47;56.03
36932;BME280;22847;42.654;23.370;2023-05-22T04:43:38;94446.66;;;20.86;54.88
36932;BME280;22847;42.654;23.370;2023-05-22T04:46:04;94388.25;;;20.30;55.64
36932;BME280;22847;42.654;23.370;2023-05-22T04:48:30;94438.56;;;20.75;55.12
36932;BME280;22847;42.654;23.370;2023-05-22T04:50:56;94430.38;;;20.76;55.54
36932;BME280;22847;42.654;23.370;2023-05-22T04:53:22;94299.41;;;20.28;53.95
36932;BME280;22847;42.654;23.370;2023-05-22T04:55:48;94416.75;;;21.04;53.91
36932;BME280;22847;42.654;23.370;2023-05-22T04:58:13;94440.66;;;21.60;53.26
36932;BME280;22847;42.654;23.370;2023-05-22T05:00:39;94316.31;;;20.71;52.90
36932;BME280;22847;42.654;23.370;2023-05-22T05:03:04;94434.88;;;21.88;52.47
36932;BME280;22847;42.654;23.370;2023-05-22T05:05:33;94409.56;;;21.86;51.99
36932;BME280;22847;42.654;23.370;2023-05-22T05:07:58;94431.72;;;22.16;51.63
36932;BME280;22847;42.654;23.370;2023-05-22T05:10:24;94438.09;;;22.33;51.32
36932;BME280;22847;42.654;23.370;2023-05-22T05:12:49;94444.34;;;21.77;52.05
36932;BME280;22847;42.654;23.370;2023-05-22T05:15:15;94276.47;;;20.78;51.98
36932;BME280;22847;42.654;23.370;2023-05-22T05:17:40;94442.75;;;22.19;51.01
36932;BME280;22847;42.654;23.370;2023-05-22T05:20:06;94422.38;;;22.13;50.51
36932;BME280;22847;42.654;23.370;2023-05-22T05:22:32;94456.69;;;22.51;50.15
36932;BME280;22847;42.654;23.370;2023-05-22T05:24:57;94430.97;;;22.82;49.79
36932;BME280;22847;42.654;23.370;2023-05-22T05:27:23;94448.31;;;23.14;49.26
36932;BME280;22847;42.654;23.370;2023-05-22T05:29:48;94217.53;;;21.92;48.35
36932;BME280;22847;42.654;23.370;2023-05-22T05:32:14;94412.94;;;23.25;47.32
36932;BME280;22847;42.654;23.370;2023-05-22T05:34:40;94431.28;;;23.15;46.85
36932;BME280;22847;42.654;23.370;2023-05-22T05:37:05;94444.13;;;23.60;44.75
36932;BME280;22847;42.654;23.370;2023-05-22T05:39:31;94440.59;;;23.77;44.39
36932;BME280;22847;42.654;23.370;2023-05-22T05:41:56;94441.16;;;23.91;43.52
36932;BME280;22847;42.654;23.370;2023-05-22T05:44:22;94265.09;;;23.06;42.98
36932;BME280;22847;42.654;23.370;2023-05-22T05:46:47;94464.56;;;24.24;44.16
36932;BME280;22847;42.654;23.370;2023-05-22T05:49:12;94442.00;;;24.55;42.91
36932;BME280;22847;42.654;23.370;2023-05-22T05:51:38;94307.13;;;23.50;42.88
36932;BME280;22847;42.654;23.370;2023-05-22T05:54:04;94391.91;;;24.28;43.58
36932;BME280;22847;42.654;23.370;2023-05-22T05:56:29;94446.63;;;24.59;42.49
36932;BME280;22847;42.654;23.370;2023-05-22T05:58:55;94295.06;;;23.60;42.82
36932;BME280;22847;42.654;23.370;2023-05-22T06:01:20;94446.09;;;24.45;43.56
36932;BME280;22847;42.654;23.370;2023-05-22T06:03:49;94441.16;;;23.91;41.80
36932;BME280;22847;42.654;23.370;2023-05-22T06:06:14;94409.19;;;23.68;40.52
36932;BME280;22847;42.654;23.370;2023-05-22T06:08:42;94372.38;;;23.53;39.29
36932;BME280;22847;42.654;23.370;2023-05-22T06:11:07;94449.63;;;23.99;39.34
36932;BME280;22847;42.654;23.370;2023-05-22T06:13:32;94318.84;;;22.85;37.89
36932;BME280;22847;42.654;23.370;2023-05-22T06:15:58;94486.50;;;23.49;38.67
36932;BME280;22847;42.654;23.370;2023-05-22T06:18:23;94441.81;;;23.51;39.26
36932;BME280;22847;42.654;23.370;2023-05-22T06:20:50;94429.50;;;23.39;39.14
36932;BME280;22847;42.654;23.370;2023-05-22T06:23:16;94453.41;;;23.92;38.87
36932;BME280;22847;42.654;23.370;2023-05-22T06:25:41;94312.41;;;23.04;38.70
36932;BME280;22847;42.654;23.370;2023-05-22T06:28:07;94436.84;;;23.55;39.09
36932;BME280;22847;42.654;23.370;2023-05-22T06:30:33;94442.53;;;23.17;40.25
36932;BME280;22847;42.654;23.370;2023-05-22T06:32:59;94441.66;;;23.35;39.46
36932;BME280;22847;42.654;23.370;2023-05-22T06:35:24;94448.88;;;23.58;39.42
36932;BME280;22847;42.654;23.370;2023-05-22T06:37:50;94450.75;;;23.80;38.99
36932;BME280;22847;42.654;23.370;2023-05-22T06:40:16;94447.03;;;24.39;38.21
36932;BME280;22847;42.654;23.370;2023-05-22T06:42:42;94424.22;;;24.43;36.86
36932;BME280;22847;42.654;23.370;2023-05-22T06:45:08;94458.75;;;24.04;37.71
36932;BME280;22847;42.654;23.370;2023-05-22T06:47:34;94460.97;;;22.71;40.86
36932;BME280;22847;42.654;23.370;2023-05-22T06:50:00;94449.81;;;23.22;39.16
36932;BME280;22847;42.654;23.370;2023-05-22T06:52:25;94432.22;;;23.97;38.45
36932;BME280;22847;42.654;23.370;2023-05-22T06:54:50;94450.75;;;23.69;38.56
36932;BME280;22847;42.654;23.370;2023-05-22T06:57:16;94295.16;;;22.53;39.49
36932;BME280;22847;42.654;23.370;2023-05-22T06:59:42;94450.31;;;23.30;40.19
36932;BME280;22847;42.654;23.370;2023-05-22T07:02:07;94447.41;;;24.31;38.61
36932;BME280;22847;42.654;23.370;2023-05-22T07:04:32;94450.53;;;23.93;38.87
36932;BME280;22847;42.654;23.370;2023-05-22T07:06:58;94443.34;;;23.29;38.89
36932;BME280;22847;42.654;23.370;2023-05-22T07:09:23;94444.66;;;22.31;40.45
36932;BME280;22847;42.654;23.370;2023-05-22T07:11:49;94453.72;;;21.80;42.86
36932;BME280;22847;42.654;23.370;2023-05-22T07:14:14;94451.44;;;22.81;41.20
36932;BME280;22847;42.654;23.370;2023-05-22T07:16:40;94433.97;;;22.85;41.55
36932;BME280;22847;42.654;23.370;2023-05-22T07:19:06;94441.88;;;22.92;41.31
36932;BME280;22847;42.654;23.370;2023-05-22T07:21:36;94427.13;;;23.07;41.02
36932;BME280;22847;42.654;23.370;2023-05-22T07:24:01;94400.50;;;23.49;40.50
36932;BME280;22847;42.654;23.370;2023-05-22T07:26:35;94435.50;;;23.23;40.29
36932;BME280;22847;42.654;23.370;2023-05-22T07:29:01;94454.69;;;23.25;40.99
36932;BME280;22847;42.654;23.370;2023-05-22T07:31:27;94444.53;;;22.92;41.73
36932;BME280;22847;42.654;23.370;2023-05-22T07:33:52;94347.22;;;21.95;42.75
36932;BME280;22847;42.654;23.370;2023-05-22T07:36:18;94412.19;;;22.10;43.92
36932;BME280;22847;42.654;23.370;2023-05-22T07:38:43;94305.72;;;21.75;43.77
36932;BME280;22847;42.654;23.370;2023-05-22T07:41:09;94441.78;;;22.98;43.77
36932;BME280;22847;42.654;23.370;2023-05-22T07:43:35;94444.41;;;23.28;43.72
36932;BME280;22847;42.654;23.370;2023-05-22T07:46:00;94424.47;;;23.49;42.67
36932;BME280;22847;42.654;23.370;2023-05-22T07:48:25;94389.09;;;23.19;41.68
36932;BME280;22847;42.654;23.370;2023-05-22T07:50:51;94438.81;;;23.48;41.80
36932;BME280;22847;42.654;23.370;2023-05-22T07:53:16;94327.16;;;22.77;42.39
36932;BME280;22847;42.654;23.370;2023-05-22T07:55:42;94411.22;;;23.31;42.25
36932;BME280;22847;42.654;23.370;2023-05-22T07:58:07;94286.38;;;23.06;41.79
36932;BME280;22847;42.654;23.370;2023-05-22T08:00:35;94433.91;;;24.50;40.81
36932;BME280;22847;42.654;23.370;2023-05-22T08:03:00;94429.22;;;23.93;41.55
36932;BME280;22847;42.654;23.370;2023-05-22T08:05:26;94429.66;;;24.88;39.67
36932;BME280;22847;42.654;23.370;2023-05-22T08:07:52;94439.03;;;24.05;39.25
36932;BME280;22847;42.654;23.370;2023-05-22T08:10:18;94455.50;;;23.67;39.50
36932;BME280;22847;42.654;23.370;2023-05-22T08:12:44;94433.78;;;24.56;38.06
36932;BME280;22847;42.654;23.370;2023-05-22T08:15:09;94439.66;;;25.26;37.34
36932;BME280;22847;42.654;23.370;2023-05-22T08:17:35;94426.34;;;23.95;38.04
36932;BME280;22847;42.654;23.370;2023-05-22T08:20:01;94295.38;;;22.93;37.93
36932;BME280;22847;42.654;23.370;2023-05-22T08:22:28;94413.47;;;23.16;38.77
36932;BME280;22847;42.654;23.370;2023-05-22T08:24:55;94463.03;;;24.28;38.29
36932;BME280;22847;42.654;23.370;2023-05-22T08:27:21;94301.13;;;22.37;38.94
36932;BME280;22847;42.654;23.370;2023-05-22T08:29:46;94316.59;;;22.70;39.59
36932;BME280;22847;42.654;23.370;2023-05-22T08:32:12;94452.97;;;24.18;38.03
36932;BME280;22847;42.654;23.370;2023-05-22T08:34:37;94403.28;;;23.89;38.73
36932;BME280;22847;42.654;23.370;2023-05-22T08:37:04;94391.50;;;24.48;35.81
36932;BME280;22847;42.654;23.370;2023-05-22T08:39:30;94390.16;;;24.11;35.42
36932;BME280;22847;42.654;23.370;2023-05-22T08:41:56;94421.31;;;22.99;36.13
36932;BME280;22847;42.654;23.370;2023-05-22T08:44:22;94419.81;;;23.03;37.02
36932;BME280;22847;42.654;23.370;2023-05-22T08:46:50;94395.97;;;24.19;35.08
36932;BME280;22847;42.654;23.370;2023-05-22T08:49:16;94438.00;;;24.06;35.49
36932;BME280;22847;42.654;23.370;2023-05-22T08:51:47;94388.31;;;24.11;35.70
36932;BME280;22847;42.654;23.370;2023-05-22T08:54:14;94410.53;;;24.80;35.09
36932;BME280;22847;42.654;23.370;2023-05-22T08:56:41;94292.09;;;23.44;35.50
36932;BME280;22847;42.654;23.370;2023-05-22T08:59:06;94434.44;;;24.63;34.09
36932;BME280;22847;42.654;23.370;2023-05-22T09:01:32;94286.31;;;24.39;33.41
36932;BME280;22847;42.654;23.370;2023-05-22T09:04:01;94404.84;;;24.48;33.83
36932;BME280;22847;42.654;23.370;2023-05-22T09:06:29;94431.59;;;23.37;36.91
36932;BME280;22847;42.654;23.370;2023-05-22T09:08:56;94431.53;;;23.67;35.54
36932;BME280;22847;42.654;23.370;2023-05-22T09:11:22;94436.00;;;23.01;35.16
36932;BME280;22847;42.654;23.370;2023-05-22T09:13:48;94395.00;;;23.21;34.33
36932;BME280;22847;42.654;23.370;2023-05-22T09:16:16;94431.28;;;23.15;34.17
36932;BME280;22847;42.654;23.370;2023-05-22T09:18:41;94267.88;;;22.16;35.28
36932;BME280;22847;42.654;23.370;2023-05-22T09:21:08;94413.41;;;22.92;35.53
36932;BME280;22847;42.654;23.370;2023-05-22T09:23:33;94406.34;;;23.28;34.92
36932;BME280;22847;42.654;23.370;2023-05-22T09:26:00;94414.50;;;23.03;34.75
36932;BME280;22847;42.654;23.370;2023-05-22T09:28:34;94408.00;;;23.40;35.22
36932;BME280;22847;42.654;23.370;2023-05-22T09:31:00;94313.03;;;22.16;35.63
36932;BME280;22847;42.654;23.370;2023-05-22T09:33:28;94418.16;;;23.43;34.81
36932;BME280;22847;42.654;23.370;2023-05-22T09:35:54;94407.22;;;23.10;35.88
36932;BME280;22847;42.654;23.370;2023-05-22T09:38:27;94324.53;;;22.58;36.49
36932;BME280;22847;42.654;23.370;2023-05-22T09:40:54;94297.00;;;22.94;36.03
36932;BME280;22847;42.654;23.370;2023-05-22T09:43:21;94256.09;;;23.07;33.83
36932;BME280;22847;42.654;23.370;2023-05-22T09:45:48;94416.53;;;22.41;35.23
36932;BME280;22847;42.654;23.370;2023-05-22T09:48:16;94414.59;;;22.48;35.26
36932;BME280;22847;42.654;23.370;2023-05-22T09:50:46;94382.59;;;22.07;36.43
36932;BME280;22847;42.654;23.370;2023-05-22T09:53:15;94335.56;;;21.96;35.56
36932;BME280;22847;42.654;23.370;2023-05-22T09:55:45;94417.03;;;22.50;35.87
36932;BME280;22847;42.654;23.370;2023-05-22T09:58:12;94426.41;;;22.34;35.98
36932;BME280;22847;42.654;23.370;2023-05-22T10:00:39;94321.63;;;21.39;36.25
36932;BME280;22847;42.654;23.370;2023-05-22T10:03:08;94422.81;;;21.67;36.83
36932;BME280;22847;42.654;23.370;2023-05-22T10:05:36;94395.09;;;22.06;36.20
36932;BME280;22847;42.654;23.370;2023-05-22T10:08:09;94401.63;;;22.40;36.33
36932;BME280;22847;42.654;23.370;2023-05-22T10:10:36;94406.38;;;22.98;36.42
36932;BME280;22847;42.654;23.370;2023-05-22T10:13:03;94286.31;;;22.71;39.69
36932;BME280;22847;42.654;23.370;2023-05-22T10:15:30;94377.31;;;23.38;40.21
36932;BME280;22847;42.654;23.370;2023-05-22T10:17:57;94421.91;;;23.01;42.05
36932;BME280;22847;42.654;23.370;2023-05-22T10:20:24;94356.41;;;22.88;41.74
36932;BME280;22847;42.654;23.370;2023-05-22T10:22:52;94382.84;;;22.72;42.48
36932;BME280;22847;42.654;23.370;2023-05-22T10:25:18;94383.56;;;22.31;43.01
36932;BME280;22847;42.654;23.370;2023-05-22T10:27:46;94393.88;;;22.39;43.45
36932;BME280;22847;42.654;23.370;2023-05-22T10:32:56;94445.28;;;21.09;49.15
36932;BME280;22847;42.654;23.370;2023-05-22T10:40:39;94268.94;;;18.90;68.11
36932;BME280;22847;42.654;23.370;2023-05-22T10:43:06;94469.69;;;20.28;68.03
36932;BME280;22847;42.654;23.370;2023-05-22T10:45:31;94429.19;;;20.72;65.10
36932;BME280;22847;42.654;23.370;2023-05-22T10:48:07;94456.97;;;21.32;64.14
36932;BME280;22847;42.654;23.370;2023-05-22T10:50:36;94314.66;;;20.95;67.49
36932;BME280;22847;42.654;23.370;2023-05-22T10:55:49;94424.81;;;22.33;63.01
36932;BME280;22847;42.654;23.370;2023-05-22T10:58:16;94408.72;;;22.28;61.50
36932;BME280;22847;42.654;23.370;2023-05-22T11:00:43;94278.00;;;21.90;60.84
36932;BME280;22847;42.654;23.370;2023-05-22T11:03:08;94341.16;;;22.54;56.12
36932;BME280;22847;42.654;23.370;2023-05-22T11:05:35;94410.88;;;22.97;55.65
36932;BME280;22847;42.654;23.370;2023-05-22T11:08:55;94410.25;;;23.13;57.99
36932;BME280;22847;42.654;23.370;2023-05-22T11:10:56;94418.38;;;23.30;58.62
36932;BME280;22847;42.654;23.370;2023-05-22T11:13:26;94406.13;;;22.88;59.90
36932;BME280;22847;42.654;23.370;2023-05-22T11:15:53;94273.28;;;22.10;59.47
36932;BME280;22847;42.654;23.370;2023-05-22T11:18:19;94414.66;;;22.78;58.67
36932;BME280;22847;42.654;23.370;2023-05-22T11:20:45;94420.75;;;22.79;58.30
36932;BME280;22847;42.654;23.370;2023-05-22T11:23:11;94428.34;;;20.78;57.03
36932;BME280;22847;42.654;23.370;2023-05-22T11:25:39;94327.97;;;20.19;58.40
36932;BME280;22847;42.654;23.370;2023-05-22T11:28:06;94468.41;;;19.47;57.46
36932;BME280;22847;42.654;23.370;2023-05-22T11:30:32;94306.59;;;17.58;58.20
36932;BME280;22847;42.654;23.370;2023-05-22T11:32:59;94376.88;;;17.37;60.03
36932;BME280;22847;42.654;23.370;2023-05-22T11:35:25;94500.97;;;17.92;58.80
36932;BME280;22847;42.654;23.370;2023-05-22T11:37:52;94492.28;;;18.32;57.86
36932;BME280;22847;42.654;23.370;2023-05-22T11:40:20;94493.91;;;17.71;59.52
36932;BME280;22847;42.654;23.370;2023-05-22T11:42:48;94461.56;;;17.56;59.49
36932;BME280;22847;42.654;23.370;2023-05-22T11:45:14;94398.56;;;17.12;60.19
36932;BME280;22847;42.654;23.370;2023-05-22T11:47:41;94468.38;;;17.71;60.31
36932;BME280;22847;42.654;23.370;2023-05-22T11:50:08;94472.94;;;18.25;62.53
36932;BME280;22847;42.654;23.370;2023-05-22T11:52:36;94226.00;;;16.94;61.76
36932;BME280;22847;42.654;23.370;2023-05-22T11:55:03;94493.84;;;17.92;60.96
36932;BME280;22847;42.654;23.370;2023-05-22T11:57:32;94509.28;;;18.29;58.78
36932;BME280;22847;42.654;23.370;2023-05-22T11:59:59;94454.75;;;17.68;59.31
36932;BME280;22847;42.654;23.370;2023-05-22T12:02:25;94478.84;;;17.93;60.33
36932;BME280;22847;42.654;23.370;2023-05-22T12:04:54;94438.44;;;17.58;61.90
36932;BME280;22847;42.654;23.370;2023-05-22T12:07:20;94479.31;;;18.44;61.68
36932;BME280;22847;42.654;23.370;2023-05-22T12:09:46;94470.09;;;17.92;62.44
36932;BME280;22847;42.654;23.370;2023-05-22T12:12:14;94365.34;;;17.73;61.15
36932;BME280;22847;42.654;23.370;2023-05-22T12:14:45;94480.09;;;18.85;62.81
36932;BME280;22847;42.654;23.370;2023-05-22T12:17:12;94322.66;;;18.10;61.91
36932;BME280;22847;42.654;23.370;2023-05-22T12:19:41;94311.50;;;18.08;61.40
36932;BME280;22847;42.654;23.370;2023-05-22T12:22:10;94330.28;;;18.53;60.06
36932;BME280;22847;42.654;23.370;2023-05-22T12:24:43;94491.81;;;19.43;60.71
36932;BME280;22847;42.654;23.370;2023-05-22T12:27:12;94458.03;;;19.45;59.95
36932;BME280;22847;42.654;23.370;2023-05-22T12:29:39;94303.69;;;18.67;61.17
36932;BME280;22847;42.654;23.370;2023-05-22T12:32:08;94349.84;;;19.17;60.35
36932;BME280;22847;42.654;23.370;2023-05-22T12:34:41;94314.00;;;19.28;61.11
36932;BME280;22847;42.654;23.370;2023-05-22T12:37:23;94459.47;;;20.45;62.22
36932;BME280;22847;42.654;23.370;2023-05-22T12:39:56;94448.50;;;20.41;57.72
36932;BME280;22847;42.654;23.370;2023-05-22T12:42:23;94274.72;;;19.58;58.31
36932;BME280;22847;42.654;23.370;2023-05-22T12:44:49;94447.47;;;20.87;57.71
36932;BME280;22847;42.654;23.370;2023-05-22T12:47:17;94419.97;;;20.81;58.18
36932;BME280;22847;42.654;23.370;2023-05-22T12:49:42;94366.56;;;20.53;56.55
36932;BME280;22847;42.654;23.370;2023-05-22T12:52:07;94452.22;;;21.16;55.63
36932;BME280;22847;42.654;23.370;2023-05-22T12:54:33;94448.25;;;21.25;56.01
36932;BME280;22847;42.654;23.370;2023-05-22T12:56:58;94322.25;;;20.22;54.93
36932;BME280;22847;42.654;23.370;2023-05-22T12:59:23;94328.72;;;20.39;52.93
36932;BME280;22847;42.654;23.370;2023-05-22T13:01:49;94394.34;;;21.00;57.09
36932;BME280;22847;42.654;23.370;2023-05-22T13:04:14;94368.06;;;20.99;56.82
36932;BME280;22847;42.654;23.370;2023-05-22T13:06:40;94467.91;;;21.67;56.92
36932;BME280;22847;42.654;23.370;2023-05-22T13:09:05;94303.41;;;20.75;56.30
36932;BME280;22847;42.654;23.370;2023-05-22T13:11:31;94437.91;;;21.67;56.14
36932;BME280;22847;42.654;23.370;2023-05-22T13:13:56;94392.44;;;21.81;56.10
36932;BME280;22847;42.654;23.370;2023-05-22T13:16:21;94416.06;;;21.90;56.28